createdAt,value
2018-09-22T00:01:40.103Z,0.20
2018-09-22T00:04:09.265Z,0.37
2018-09-22T00:06:38.419Z,0.20
2018-09-22T00:09:10.009Z,0.27
2018-09-22T00:11:39.302Z,0.23
2018-09-22T00:14:08.666Z,0.20
2018-09-22T00:16:37.983Z,0.20
2018-09-22T00:19:07.143Z,0.33
2018-09-22T00:21:36.291Z,0.30
2018-09-22T00:24:05.451Z,0.90
2018-09-22T00:26:34.597Z,0.20
2018-09-22T00:29:03.766Z,0.45
2018-09-22T00:31:32.918Z,1.10
2018-09-22T00:34:02.091Z,0.20
2018-09-22T00:36:31.251Z,0.30
2018-09-22T00:39:00.422Z,0.20
2018-09-22T00:41:29.575Z,0.40
2018-09-22T00:43:58.812Z,0.30
2018-09-22T00:46:27.958Z,0.70
2018-09-22T00:48:57.119Z,0.20
2018-09-22T00:51:26.362Z,0.37
2018-09-22T00:53:56.386Z,0.40
2018-09-22T00:56:26.330Z,0.40
2018-09-22T00:59:02.954Z,0.30
2018-09-22T01:01:32.158Z,0.23
2018-09-22T01:04:01.322Z,0.47
2018-09-22T01:06:30.466Z,0.10
2018-09-22T01:08:59.636Z,0.60
2018-09-22T01:11:28.750Z,0.20
2018-09-22T01:13:57.904Z,0.53
2018-09-22T01:16:27.091Z,0.50
2018-09-22T01:18:56.395Z,0.30
2018-09-22T01:21:26.466Z,0.30
2018-09-22T01:23:56.393Z,0.20
2018-09-22T01:26:26.544Z,0.40
2018-09-22T01:28:56.514Z,0.35
2018-09-22T01:31:26.529Z,0.75
2018-09-22T01:33:56.562Z,0.37
2018-09-22T01:36:26.465Z,0.30
2018-09-22T01:38:56.473Z,0.70
2018-09-22T01:41:26.490Z,0.40
2018-09-22T01:43:56.511Z,0.20
2018-09-22T01:46:26.530Z,0.20
2018-09-22T01:48:56.545Z,0.30
2018-09-22T01:51:26.470Z,0.42
2018-09-22T01:53:56.508Z,0.30
2018-09-22T01:56:26.508Z,0.45
2018-09-22T01:58:56.516Z,0.50
2018-09-22T02:01:26.526Z,0.23
2018-09-22T02:03:56.551Z,0.20
2018-09-22T02:06:26.547Z,0.30
2018-09-22T02:08:56.643Z,0.30
2018-09-22T02:11:26.591Z,0.28
2018-09-22T02:13:56.570Z,0.40
2018-09-22T02:16:26.632Z,0.33
2018-09-22T02:18:56.655Z,0.30
2018-09-22T02:21:26.588Z,0.30
2018-09-22T02:23:56.577Z,0.42
2018-09-22T02:26:26.559Z,0.25
2018-09-22T02:28:56.615Z,0.10
2018-09-22T02:31:26.631Z,0.28
2018-09-22T02:33:56.664Z,0.40
2018-09-22T02:36:26.668Z,0.20
2018-09-22T02:38:56.688Z,0.20
2018-09-22T02:41:26.595Z,0.20
2018-09-22T02:43:56.710Z,0.20
2018-09-22T02:46:26.731Z,0.55
2018-09-22T02:48:56.642Z,0.40
2018-09-22T02:51:26.660Z,0.30
2018-09-22T02:53:56.681Z,0.30
2018-09-22T02:56:26.646Z,0.20
2018-09-22T02:58:56.724Z,0.42
2018-09-22T03:01:26.754Z,0.20
2018-09-22T03:03:56.775Z,0.30
2018-09-22T03:06:26.711Z,0.30
2018-09-22T03:08:56.913Z,0.20
2018-09-22T03:11:26.943Z,0.88
2018-09-22T03:13:56.722Z,0.20
2018-09-22T03:16:26.728Z,0.57
2018-09-22T03:18:56.727Z,0.33
2018-09-22T03:21:26.774Z,0.28
2018-09-22T03:23:56.782Z,0.45
2018-09-22T03:26:26.795Z,0.40
2018-09-22T03:28:56.747Z,0.50
2018-09-22T03:31:26.887Z,0.62
2018-09-22T03:34:03.469Z,0.60
2018-09-22T03:36:32.629Z,0.17
2018-09-22T03:39:01.856Z,0.30
2018-09-22T03:41:30.994Z,0.70
2018-09-22T03:44:00.146Z,0.20
2018-09-22T03:46:29.265Z,0.50
2018-09-22T03:48:58.411Z,0.43
2018-09-22T03:51:27.584Z,0.40
2018-09-22T03:53:56.891Z,0.40
2018-09-22T03:56:26.809Z,0.33
2018-09-22T03:58:56.814Z,0.30
2018-09-22T04:01:26.839Z,0.65
2018-09-22T04:03:56.867Z,0.40
2018-09-22T04:06:26.895Z,0.42
2018-09-22T04:08:56.890Z,0.30
2018-09-22T04:11:26.855Z,0.30
2018-09-22T04:13:56.966Z,0.37
2018-09-22T04:16:26.866Z,0.47
2018-09-22T04:18:56.959Z,0.62
2018-09-22T04:21:26.891Z,0.40
2018-09-22T04:23:56.907Z,0.47
2018-09-22T04:26:26.919Z,0.40
2018-09-22T04:28:56.922Z,0.70
2018-09-22T04:31:26.946Z,0.70
2018-09-22T04:33:56.994Z,0.70
2018-09-22T04:36:26.997Z,0.33
2018-09-22T04:38:57.013Z,0.35
2018-09-22T04:41:27.022Z,0.50
2018-09-22T04:43:57.115Z,0.50
2018-09-22T04:46:27.014Z,0.30
2018-09-22T04:48:57.026Z,0.40
2018-09-22T04:51:27.456Z,0.30
2018-09-22T04:53:57.050Z,0.50
2018-09-22T04:56:27.125Z,0.47
2018-09-22T04:58:57.556Z,0.40
2018-09-22T05:01:27.417Z,0.35
2018-09-22T05:03:57.009Z,0.30
2018-09-22T05:06:28.170Z,0.62
2018-09-22T05:08:57.391Z,0.70
2018-09-22T05:11:27.115Z,0.40
2018-09-22T05:13:57.030Z,0.50
2018-09-22T05:16:27.133Z,0.40
2018-09-22T05:18:57.062Z,0.40
2018-09-22T05:21:27.201Z,0.62
2018-09-22T05:23:57.107Z,0.75
2018-09-22T05:26:27.191Z,0.40
2018-09-22T05:28:57.111Z,0.40
2018-09-22T05:31:27.045Z,0.40
2018-09-22T05:33:58.078Z,0.50
2018-09-22T05:36:27.259Z,0.43
2018-09-22T05:38:57.510Z,0.40
2018-09-22T05:41:27.186Z,0.30
2018-09-22T05:43:57.350Z,0.40
2018-09-22T05:46:27.115Z,0.40
2018-09-22T05:48:57.243Z,0.50
2018-09-22T05:51:27.198Z,0.40
2018-09-22T05:53:57.109Z,0.72
2018-09-22T05:56:27.131Z,0.50
2018-09-22T05:58:57.145Z,0.72
2018-09-22T06:01:27.183Z,0.42
2018-09-22T06:03:57.330Z,0.45
2018-09-22T06:06:27.154Z,0.70
2018-09-22T06:08:57.231Z,0.33
2018-09-22T06:11:27.205Z,0.50
2018-09-22T06:13:57.242Z,0.75
2018-09-22T06:16:27.287Z,0.40
2018-09-22T06:18:57.289Z,0.75
2018-09-22T06:21:27.195Z,0.30
2018-09-22T06:23:57.267Z,0.50
2018-09-22T06:26:27.287Z,0.60
2018-09-22T06:28:57.288Z,0.42
2018-09-22T06:31:27.406Z,0.37
2018-09-22T06:33:57.282Z,0.65
2018-09-22T06:36:27.319Z,0.50
2018-09-22T06:38:57.360Z,0.40
2018-09-22T06:46:49.535Z,0.87
2018-09-22T06:49:18.667Z,0.50
2018-09-22T06:51:47.834Z,0.70
2018-09-22T06:54:16.970Z,0.53
2018-09-22T06:56:46.135Z,0.53
2018-09-22T06:59:15.275Z,0.33
2018-09-22T07:01:45.439Z,0.50
2018-09-22T07:04:14.583Z,0.80
2018-09-22T07:06:43.742Z,0.50
2018-09-22T07:09:12.948Z,0.50
2018-09-22T07:11:42.081Z,0.63
2018-09-22T07:14:11.215Z,0.65
2018-09-22T07:16:40.376Z,0.30
2018-09-22T07:19:09.536Z,0.33
2018-09-22T07:21:43.936Z,0.55
2018-09-22T07:24:13.110Z,0.63
2018-09-22T07:26:42.265Z,0.40
2018-09-22T07:29:11.418Z,0.40
2018-09-22T07:31:40.784Z,0.30
2018-09-22T07:34:09.918Z,0.65
2018-09-22T07:36:39.059Z,0.33
2018-09-22T07:39:10.270Z,0.43
2018-09-22T07:41:39.410Z,0.40
2018-09-22T07:44:08.583Z,0.50
2018-09-22T07:46:37.730Z,0.80
2018-09-22T07:49:06.853Z,0.40
2018-09-22T07:51:36.002Z,0.20
2018-09-22T07:54:05.223Z,0.20
2018-09-22T07:56:34.371Z,0.67
2018-09-22T07:59:03.521Z,0.40
2018-09-22T08:01:32.658Z,0.30
2018-09-22T08:04:01.806Z,0.53
2018-09-22T08:06:31.075Z,0.20
2018-09-22T08:09:00.214Z,0.30
2018-09-22T08:11:29.395Z,0.20
2018-09-22T08:13:58.502Z,0.30
2018-09-22T08:16:27.652Z,0.40
2018-09-22T08:18:57.764Z,0.42
2018-09-22T08:21:27.519Z,0.28
2018-09-22T08:23:57.599Z,0.60
2018-09-22T08:26:27.487Z,0.20
2018-09-22T08:28:57.574Z,0.55
2018-09-22T08:31:27.495Z,0.35
2018-09-22T08:33:57.515Z,0.40
2018-09-22T08:36:27.570Z,1.15
2018-09-22T08:38:57.544Z,0.30
2018-09-22T08:41:27.539Z,0.72
2018-09-22T08:43:57.596Z,0.30
2018-09-22T08:46:27.531Z,0.40
2018-09-22T08:48:57.623Z,0.20
2018-09-22T08:51:27.539Z,0.30
2018-09-22T08:53:57.638Z,0.20
2018-09-22T08:56:27.646Z,0.42
2018-09-22T08:58:57.567Z,0.30
2018-09-22T09:01:27.599Z,0.60
2018-09-22T09:03:57.613Z,0.60
2018-09-22T09:06:27.645Z,0.70
2018-09-22T09:08:57.635Z,0.45
2018-09-22T09:11:27.726Z,0.45
2018-09-22T09:13:57.605Z,0.33
2018-09-22T09:16:27.694Z,0.53
2018-09-22T09:18:57.701Z,0.30
2018-09-22T09:21:27.675Z,0.30
2018-09-22T09:23:57.637Z,0.50
2018-09-22T09:26:27.646Z,0.33
2018-09-22T09:28:57.682Z,0.40
2018-09-22T09:31:27.662Z,0.20
2018-09-22T09:33:57.714Z,0.20
2018-09-22T09:36:27.722Z,0.42
2018-09-22T09:39:00.050Z,0.68
2018-09-22T09:41:29.299Z,0.37
2018-09-22T09:43:58.430Z,0.37
2018-09-22T09:46:27.687Z,0.50
2018-09-22T09:48:57.711Z,0.30
2018-09-22T09:51:27.743Z,0.30
2018-09-22T09:53:57.807Z,0.30
2018-09-22T09:56:27.759Z,0.57
2018-09-22T09:58:57.787Z,0.40
2018-09-22T10:01:27.807Z,0.40
2018-09-22T10:03:57.826Z,0.40
2018-09-22T10:06:27.707Z,0.60
2018-09-22T10:08:57.749Z,0.68
2018-09-22T10:11:27.754Z,0.65
2018-09-22T10:13:57.782Z,0.57
2018-09-22T10:16:27.786Z,0.30
2018-09-22T10:18:57.833Z,0.33
2018-09-22T10:21:27.818Z,0.85
2018-09-22T10:23:57.758Z,0.30
2018-09-22T10:26:27.987Z,0.37
2018-09-22T10:28:57.809Z,0.33
2018-09-22T10:31:27.793Z,0.40
2018-09-22T10:33:57.775Z,0.40
2018-09-22T10:36:27.774Z,0.53
2018-09-22T10:38:57.859Z,0.30
2018-09-22T10:41:27.806Z,0.30
2018-09-22T10:43:57.891Z,0.72
2018-09-22T10:46:27.894Z,0.40
2018-09-22T10:48:57.819Z,0.40
2018-09-22T10:51:27.810Z,0.65
2018-09-22T10:53:57.868Z,0.50
2018-09-22T10:56:27.828Z,1.45
2018-09-22T10:58:57.850Z,0.40
2018-09-22T11:01:27.902Z,0.30
2018-09-22T11:03:57.923Z,0.50
2018-09-22T11:06:27.935Z,0.40
2018-09-22T11:08:57.971Z,0.68
2018-09-22T11:11:27.869Z,0.60
2018-09-22T11:13:57.898Z,0.50
2018-09-22T11:16:27.927Z,0.40
2018-09-22T11:18:57.987Z,0.37
2018-09-22T11:21:28.027Z,0.43
2018-09-22T11:23:57.965Z,0.40
2018-09-22T11:26:28.046Z,0.40
2018-09-22T11:28:58.122Z,0.40
2018-09-22T11:31:28.086Z,0.40
2018-09-22T11:33:57.950Z,0.30
2018-09-22T11:36:27.928Z,0.50
2018-09-22T11:38:58.018Z,0.40
2018-09-22T11:41:28.031Z,0.40
2018-09-22T11:43:57.995Z,0.42
2018-09-22T11:46:27.998Z,0.70
2018-09-22T11:48:57.954Z,0.50
2018-09-22T11:51:28.042Z,0.50
2018-09-22T11:53:57.951Z,0.45
2018-09-22T11:56:28.026Z,0.40
2018-09-22T11:58:57.984Z,0.40
2018-09-22T12:01:27.985Z,0.47
2018-09-22T12:03:58.024Z,0.40
2018-09-22T12:06:28.151Z,0.50
2018-09-22T12:08:58.050Z,0.78
2018-09-22T12:11:28.371Z,0.60
2018-09-22T12:13:58.098Z,0.78
2018-09-22T12:16:28.018Z,0.40
2018-09-22T12:18:58.095Z,0.82
2018-09-22T12:21:28.125Z,0.70
2018-09-22T12:23:58.046Z,0.85
2018-09-22T12:26:28.096Z,0.30
2018-09-22T12:28:58.159Z,0.45
2018-09-22T12:31:28.118Z,0.30
2018-09-22T12:33:58.114Z,0.30
2018-09-22T12:36:28.146Z,0.40
2018-09-22T12:38:58.068Z,0.40
2018-09-22T12:41:28.105Z,0.50
2018-09-22T12:43:58.147Z,0.50
2018-09-22T12:46:28.076Z,0.60
2018-09-22T12:48:58.139Z,0.50
2018-09-22T12:51:28.087Z,0.40
2018-09-22T12:53:58.154Z,0.30
2018-09-22T12:56:28.173Z,0.47
2018-09-22T12:58:58.223Z,0.53
2018-09-22T13:01:28.194Z,0.80
2018-09-22T13:03:58.247Z,0.40
2018-09-22T13:06:28.203Z,0.50
2018-09-22T13:08:58.162Z,0.40
2018-09-22T13:11:28.143Z,0.57
2018-09-22T13:13:58.287Z,0.50
2018-09-22T13:16:28.131Z,0.60
2018-09-22T13:18:58.828Z,0.45
2018-09-22T13:21:28.307Z,0.70
2018-09-22T13:23:58.171Z,0.37
2018-09-22T13:26:28.930Z,0.30
2018-09-22T13:28:58.250Z,0.30
2018-09-22T13:31:28.170Z,0.40
2018-09-22T13:33:58.243Z,0.50
2018-09-22T13:36:28.281Z,0.40
2018-09-22T13:38:58.263Z,0.40
2018-09-22T13:41:28.285Z,0.40
2018-09-22T13:43:58.195Z,0.90
2018-09-22T13:46:28.222Z,0.47
2018-09-22T13:48:58.210Z,0.53
2018-09-22T13:51:28.209Z,0.40
2018-09-22T13:53:58.213Z,0.37
2018-09-22T13:56:28.399Z,0.42
2018-09-22T13:58:58.422Z,0.30
2018-09-22T14:01:28.390Z,0.60
2018-09-22T14:03:58.335Z,0.50
2018-09-22T14:06:28.523Z,0.40
2018-09-22T14:08:58.257Z,0.70
2018-09-22T14:11:29.323Z,0.36
2018-09-22T14:13:58.566Z,0.30
2018-09-22T14:16:28.346Z,0.50
2018-09-22T14:18:58.388Z,0.20
2018-09-22T14:21:28.389Z,0.30
2018-09-22T14:23:58.367Z,0.30
2018-09-22T14:26:28.407Z,0.60
2018-09-22T14:28:58.322Z,0.50
2018-09-22T14:31:28.415Z,0.85
2018-09-22T14:33:58.343Z,0.47
2018-09-22T14:36:28.314Z,0.70
2018-09-22T14:38:58.302Z,0.63
2018-09-22T14:41:28.386Z,0.40
2018-09-22T14:43:58.324Z,0.43
2018-09-22T14:46:28.435Z,0.30
2018-09-22T14:48:58.340Z,0.50
2018-09-22T14:51:28.341Z,0.40
2018-09-22T14:53:58.379Z,0.57
2018-09-22T14:56:28.464Z,0.30
2018-09-22T14:58:58.427Z,0.35
2018-09-22T15:01:28.578Z,0.40
2018-09-22T15:03:58.509Z,0.35
2018-09-22T15:06:28.471Z,0.88
2018-09-22T15:08:58.370Z,0.50
2018-09-22T15:11:28.535Z,0.50
2018-09-22T15:13:58.415Z,0.35
2018-09-22T15:16:28.636Z,0.57
2018-09-22T15:18:58.443Z,0.50
2018-09-22T15:21:28.794Z,0.60
2018-09-22T15:23:58.479Z,0.47
2018-09-22T15:26:28.959Z,1.60
2018-09-22T15:28:58.472Z,0.47
2018-09-22T15:31:28.554Z,0.80
2018-09-22T15:33:58.410Z,0.40
2018-09-22T15:36:28.435Z,0.40
2018-09-22T15:38:58.487Z,0.20
2018-09-22T15:41:28.606Z,0.40
2018-09-22T15:43:58.901Z,0.42
2018-09-22T15:46:28.598Z,0.50
2018-09-22T15:48:58.614Z,0.45
2018-09-22T15:51:28.521Z,1.57
2018-09-22T15:53:58.520Z,0.70
2018-09-22T15:56:28.577Z,0.40
2018-09-22T15:58:57.726Z,0.43
2018-09-22T16:01:26.870Z,0.40
2018-09-22T16:03:56.091Z,0.30
2018-09-22T16:06:25.290Z,0.40
2018-09-22T16:08:54.467Z,0.50
2018-09-22T16:11:23.655Z,0.40
2018-09-22T16:13:52.807Z,0.60
2018-09-22T16:16:21.955Z,0.60
2018-09-22T16:18:51.118Z,0.40
2018-09-22T16:21:20.254Z,0.30
2018-09-22T16:23:49.411Z,0.30
2018-09-22T16:26:18.570Z,0.37
2018-09-22T16:28:47.730Z,0.60
2018-09-22T16:31:16.955Z,0.40
2018-09-22T16:33:48.311Z,0.50
2018-09-22T16:36:17.671Z,0.40
2018-09-22T16:38:46.862Z,0.53
2018-09-22T16:41:16.077Z,0.40
2018-09-22T16:43:45.186Z,0.70
2018-09-22T16:46:14.343Z,1.20
2018-09-22T16:48:43.500Z,1.00
2018-09-22T16:51:12.664Z,0.30
2018-09-22T16:53:41.852Z,0.37
2018-09-22T16:56:10.976Z,0.43
2018-09-22T16:58:40.285Z,0.60
2018-09-22T17:01:09.974Z,0.80
2018-09-22T17:03:39.187Z,0.80
2018-09-22T17:06:08.337Z,1.43
2018-09-22T17:08:40.003Z,0.93
2018-09-22T17:11:09.330Z,0.43
2018-09-22T17:13:38.646Z,0.50
2018-09-22T17:16:08.318Z,0.60
2018-09-22T17:18:37.473Z,0.50
2018-09-22T17:21:06.721Z,0.67
2018-09-22T17:23:35.978Z,1.10
2018-09-22T17:26:05.238Z,1.17
2018-09-22T17:28:34.428Z,0.80
2018-09-22T17:31:03.563Z,1.00
2018-09-22T17:33:32.711Z,0.80
2018-09-22T17:36:02.278Z,0.50
2018-09-22T17:38:31.415Z,0.50
2018-09-22T17:41:00.547Z,0.50
2018-09-22T17:43:29.715Z,0.40
2018-09-22T17:45:59.148Z,0.50
2018-09-22T17:48:29.264Z,0.80
2018-09-22T17:50:59.165Z,0.60
2018-09-22T17:53:29.224Z,0.53
2018-09-22T17:55:59.222Z,0.55
2018-09-22T17:58:28.411Z,0.87
2018-09-22T18:00:57.538Z,1.17
2018-09-22T18:03:26.691Z,1.30
2018-09-22T18:05:56.411Z,1.00
2018-09-22T18:08:25.506Z,0.87
2018-09-22T18:10:54.639Z,0.60
2018-09-22T18:13:23.786Z,1.40
2018-09-22T18:15:52.922Z,1.40
2018-09-22T18:18:22.066Z,1.47
2018-09-22T18:20:51.227Z,1.37
2018-09-22T18:23:20.379Z,1.30
2018-09-22T18:25:50.734Z,0.80
2018-09-22T18:28:19.907Z,0.60
2018-09-22T18:30:49.090Z,0.60
2018-09-22T18:33:18.243Z,0.53
2018-09-22T18:35:48.395Z,0.70
2018-09-22T18:38:17.587Z,0.60
2018-09-22T18:40:47.119Z,1.10
2018-09-22T18:43:16.502Z,0.90
2018-09-22T18:45:45.654Z,0.73
2018-09-22T18:48:14.806Z,0.50
2018-09-22T18:50:44.011Z,0.62
2018-09-22T18:53:13.218Z,0.70
2018-09-22T18:55:42.387Z,0.40
2018-09-22T18:58:11.527Z,0.30
2018-09-22T19:00:40.703Z,0.42
2018-09-22T19:03:09.844Z,0.50
2018-09-22T19:05:39.054Z,0.60
2018-09-22T19:08:08.260Z,0.90
2018-09-22T19:10:37.482Z,0.78
2018-09-22T19:13:08.003Z,0.70
2018-09-22T19:15:53.723Z,0.90
2018-09-22T19:18:27.918Z,1.43
2018-09-22T19:21:01.174Z,2.60
2018-09-22T19:23:33.767Z,2.20
2018-09-22T19:26:07.184Z,1.33
2018-09-22T19:28:41.079Z,1.43
2018-09-22T19:31:13.877Z,0.77
2018-09-22T19:33:52.277Z,1.60
2018-09-22T19:36:28.343Z,1.00
2018-09-22T19:39:04.001Z,1.90
2018-09-22T19:42:36.198Z,1.33
2018-09-22T19:45:10.999Z,1.27
2018-09-22T19:47:48.794Z,1.50
2018-09-22T19:50:21.991Z,1.30
2018-09-22T19:55:34.071Z,2.07
2018-09-22T19:58:03.265Z,1.90
2018-09-22T20:00:32.371Z,1.33
2018-09-22T20:03:01.498Z,1.05
2018-09-22T20:05:30.696Z,2.00
2018-09-22T20:07:59.827Z,1.40
2018-09-22T20:10:29.864Z,0.93
2018-09-22T20:12:59.960Z,0.60
2018-09-22T20:15:29.805Z,1.90
2018-09-22T20:18:00.158Z,0.80
2018-09-22T20:25:54.999Z,1.73
2018-09-22T20:28:24.154Z,0.70
2018-09-22T20:30:53.294Z,0.60
2018-09-22T20:33:22.504Z,0.60
2018-09-22T20:35:51.643Z,0.77
2018-09-22T20:40:50.208Z,1.00
2018-09-22T20:43:19.342Z,1.10
2018-09-22T20:45:48.492Z,0.67
2018-09-22T20:48:17.642Z,1.00
2018-09-22T20:50:46.791Z,0.73
2018-09-22T20:53:15.958Z,0.90
2018-09-22T20:55:45.106Z,0.98
2018-09-22T20:58:14.263Z,0.70
2018-09-22T21:00:43.415Z,0.20
2018-09-22T21:03:12.578Z,0.60
2018-09-22T21:05:41.721Z,0.70
2018-09-22T21:08:10.971Z,0.57
2018-09-22T21:10:40.160Z,0.47
2018-09-22T21:13:09.335Z,0.60
2018-09-22T21:15:38.482Z,0.57
2018-09-22T21:18:07.619Z,1.00
2018-09-22T21:20:36.774Z,1.50
2018-09-22T21:23:05.915Z,0.93
2018-09-22T21:25:35.098Z,0.90
2018-09-22T21:28:04.275Z,1.17
2018-09-22T21:30:33.554Z,0.60
2018-09-22T21:33:02.696Z,0.60
2018-09-22T21:35:31.830Z,0.47
2018-09-22T21:38:00.992Z,0.40
2018-09-22T21:40:30.975Z,0.45
2018-09-22T21:43:00.994Z,0.85
2018-09-22T21:45:31.174Z,0.82
2018-09-22T21:48:01.159Z,0.47
2018-09-22T21:50:31.117Z,0.60
2018-09-22T21:53:01.190Z,0.70
2018-09-22T21:55:31.183Z,0.60
2018-09-22T21:58:01.112Z,0.40
2018-09-22T22:00:31.135Z,0.70
2018-09-22T22:03:01.135Z,0.50
2018-09-22T22:05:31.150Z,0.30
2018-09-22T22:08:01.171Z,0.33
2018-09-22T22:10:31.263Z,0.37
2018-09-22T22:13:01.203Z,0.40
2018-09-22T22:15:31.230Z,0.37
2018-09-22T22:18:01.473Z,0.35
2018-09-22T22:20:31.151Z,0.63
2018-09-22T22:23:01.180Z,0.60
2018-09-22T22:25:31.182Z,0.20
2018-09-22T22:28:01.307Z,0.47
2018-09-22T22:30:31.269Z,0.50
2018-09-22T22:33:01.242Z,0.45
2018-09-22T22:35:31.171Z,0.80
2018-09-22T22:38:01.294Z,0.40
2018-09-22T22:40:31.291Z,0.40
2018-09-22T22:43:01.215Z,0.30
2018-09-22T22:45:31.215Z,0.45
2018-09-22T22:48:01.237Z,0.30
2018-09-22T22:50:31.271Z,0.30
2018-09-22T22:53:01.282Z,0.40
2018-09-22T22:55:31.300Z,0.30
2018-09-22T22:58:01.390Z,0.20
2018-09-22T23:00:31.385Z,0.20
2018-09-22T23:03:01.409Z,0.20
2018-09-22T23:05:31.364Z,0.20
2018-09-22T23:08:01.647Z,0.13
2018-09-22T23:10:31.311Z,0.30
2018-09-22T23:13:01.320Z,0.30
2018-09-22T23:15:31.334Z,0.30
2018-09-22T23:18:01.338Z,0.28
2018-09-22T23:20:31.299Z,0.23
2018-09-22T23:23:01.423Z,0.23
2018-09-22T23:25:31.350Z,0.30
2018-09-22T23:28:01.346Z,0.10
2018-09-22T23:30:31.329Z,0.20
2018-09-22T23:33:01.358Z,0.28
2018-09-22T23:35:31.351Z,0.37
2018-09-22T23:38:01.491Z,0.25
2018-09-22T23:40:31.394Z,0.30
2018-09-22T23:43:01.416Z,0.20
2018-09-22T23:45:31.427Z,0.25
2018-09-22T23:48:01.379Z,0.20
2018-09-22T23:50:31.473Z,0.40
2018-09-22T23:53:01.499Z,0.50
2018-09-22T23:55:31.700Z,0.50
2018-09-22T23:58:01.435Z,0.40
